Perrys Mills, New York
Current Conditions -  °F | °C
As of 10:55 PM on Saturday 24 Jan 2015 (Local Time) from KFSO Reporting Station
Light Snow Light Snow  
Wind Chill: 29°   Ceiling: 2000
Heat Index: 29°   Visibility: 7mi
Dew Point: 26°   Wind: 0mph
Humidity: 87%   Direction: NA
Pressure: 29.3"   Gusts: NA
Location:  44.9684°N, 73.45°W
Report Text: KFSO 250355Z AUTO 00000KT 7SM -SN OVC020 M02/M04 A2930 RMK AO2 T10171036
Loading
Personal Weather Stations






























Interactive Weather Map New forecast layout! Learn more

10-Day Weather Forecast

Advertisements
Track Severe Weather on mobile